createdAt,value
2022-12-02T01:17:57.149Z,100372.63
2022-12-02T01:18:29.528Z,100372.63
2022-12-02T01:19:01.407Z,100374.50
2022-12-02T01:19:33.255Z,100373.09
2022-12-02T01:20:05.602Z,100373.91
2022-12-02T01:20:37.531Z,100368.63
2022-12-02T01:21:09.937Z,100377.03
2022-12-02T01:21:41.867Z,100365.53
2022-12-02T01:22:13.729Z,100366.16
2022-12-02T01:22:45.589Z,100368.34
2022-12-02T01:23:17.848Z,100370.84
2022-12-02T01:23:50.060Z,100367.53
2022-12-02T01:24:21.942Z,100367.78
2022-12-02T01:24:53.981Z,100365.97
2022-12-02T01:25:25.939Z,100366.34
2022-12-02T01:25:57.800Z,100368.19
2022-12-02T01:26:29.629Z,100367.00
2022-12-02T01:27:01.489Z,100370.44
2022-12-02T01:27:34.077Z,100370.69
2022-12-02T01:28:06.403Z,100364.84
2022-12-02T01:28:38.299Z,100366.69
2022-12-02T01:29:10.482Z,100364.91
2022-12-02T01:29:42.385Z,100366.09
2022-12-02T01:30:15.181Z,100370.44
2022-12-02T01:30:47.832Z,100361.31
2022-12-02T01:31:19.922Z,100365.78
2022-12-02T01:31:51.879Z,100364.12
2022-12-02T01:32:24.658Z,100360.75
2022-12-02T01:32:56.535Z,100368.38
2022-12-02T01:33:29.164Z,100362.13
2022-12-02T01:34:01.022Z,100366.41
2022-12-02T01:34:33.217Z,100375.31
2022-12-02T01:35:05.471Z,100369.50
2022-12-02T01:35:37.359Z,100370.41
2022-12-02T01:36:09.363Z,100365.00
2022-12-02T01:36:41.218Z,100360.78
2022-12-02T01:37:13.443Z,100358.59
2022-12-02T01:37:45.908Z,100354.59
2022-12-02T01:38:17.756Z,100359.47
2022-12-02T01:38:49.636Z,100368.38
2022-12-02T01:39:21.505Z,100356.69
2022-12-02T01:39:53.696Z,100361.53
2022-12-02T01:40:27.156Z,100356.00
2022-12-02T01:40:59.663Z,100349.22
2022-12-02T01:41:31.563Z,100349.56
2022-12-02T01:42:04.397Z,100350.25
2022-12-02T01:42:36.587Z,100359.63
2022-12-02T01:43:08.664Z,100352.09
2022-12-02T01:43:40.565Z,100355.84
2022-12-02T01:44:12.449Z,100354.84
2022-12-02T01:44:44.432Z,100356.31
2022-12-02T01:45:17.036Z,100355.47
2022-12-02T01:45:49.184Z,100351.22
2022-12-02T01:46:21.344Z,100357.91
2022-12-02T01:46:53.367Z,100353.94
2022-12-02T01:47:25.952Z,100350.41
2022-12-02T01:48:01.125Z,100348.78
2022-12-02T01:48:36.152Z,100351.28
2022-12-02T02:00:44.859Z,100340.47
2022-12-02T02:01:32.116Z,100343.84
2022-12-02T02:02:04.190Z,100345.37
2022-12-02T02:02:40.332Z,100343.41
2022-12-02T02:03:12.200Z,100339.63
2022-12-02T02:03:44.122Z,100341.63
2022-12-02T02:04:16.245Z,100341.16
2022-12-02T02:04:48.454Z,100343.84
2022-12-02T02:05:27.189Z,100343.53
2022-12-02T02:05:59.318Z,100348.41
2022-12-02T02:06:35.298Z,100342.19
2022-12-02T02:07:07.793Z,100342.50
2022-12-02T02:07:41.295Z,100345.66
2022-12-02T02:08:14.504Z,100345.81
2022-12-02T02:08:46.627Z,100346.22
2022-12-02T02:09:18.638Z,100347.75
2022-12-02T02:09:51.355Z,100343.34
2022-12-02T02:10:25.524Z,100338.81
2022-12-02T02:10:58.462Z,100343.09
2022-12-02T02:11:31.093Z,100346.25
2022-12-02T02:12:04.810Z,100346.03
2022-12-02T02:12:37.357Z,100344.59
2022-12-02T02:13:12.300Z,100350.56
2022-12-02T02:13:44.444Z,100354.75
2022-12-02T02:14:16.270Z,100346.16
2022-12-02T02:14:48.398Z,100361.63
2022-12-02T02:15:22.011Z,100344.47
2022-12-02T02:15:54.181Z,100350.34
2022-12-02T02:16:26.346Z,100351.25
2022-12-02T02:16:58.454Z,100355.31
2022-12-02T02:17:30.890Z,100351.56
2022-12-02T02:18:05.332Z,100348.28
2022-12-02T02:18:37.790Z,100350.91
2022-12-02T02:19:13.446Z,100352.31
2022-12-02T02:19:45.324Z,100350.44
2022-12-02T02:20:21.447Z,100345.22
2022-12-02T02:20:57.451Z,100355.47
2022-12-02T02:21:36.188Z,100352.16
2022-12-02T02:22:15.016Z,100351.06
2022-12-02T02:23:05.682Z,100355.22
2022-12-02T02:23:37.711Z,100350.91
2022-12-02T02:24:09.893Z,100357.31
2022-12-02T02:24:41.907Z,100350.47
2022-12-02T02:25:20.081Z,100358.87
2022-12-02T02:25:56.711Z,100352.81
2022-12-02T02:26:29.782Z,100353.72
2022-12-02T02:27:02.929Z,100357.78
2022-12-02T02:27:34.847Z,100352.47
2022-12-02T02:28:08.131Z,100350.78
2022-12-02T02:28:40.385Z,100356.97
2022-12-02T02:29:12.474Z,100351.94
2022-12-02T02:29:44.605Z,100356.63
2022-12-02T02:30:17.466Z,100350.09
2022-12-02T02:30:49.491Z,100353.13
2022-12-02T02:31:22.786Z,100351.41
2022-12-02T02:31:54.916Z,100356.06
2022-12-02T02:32:27.158Z,100350.91
2022-12-02T02:33:04.968Z,100350.91
2022-12-02T02:33:37.704Z,100355.53
2022-12-02T02:34:09.758Z,100350.91
2022-12-02T02:34:42.440Z,100361.31
2022-12-02T02:35:14.924Z,100350.25
2022-12-02T02:35:48.185Z,100354.31
2022-12-02T02:36:20.061Z,100356.16
2022-12-02T02:36:52.140Z,100360.25
2022-12-02T02:37:25.223Z,100362.56
2022-12-02T02:37:57.540Z,100355.84
2022-12-02T02:38:30.908Z,100357.25
2022-12-02T02:39:03.953Z,100353.13
2022-12-02T02:39:37.090Z,100358.47
2022-12-02T02:40:10.961Z,100363.25
2022-12-02T02:40:44.062Z,100364.97
2022-12-02T02:41:16.115Z,100363.72
2022-12-02T02:41:48.035Z,100367.62
2022-12-02T02:42:19.981Z,100357.91
2022-12-02T02:42:55.202Z,100359.13
2022-12-02T02:43:29.706Z,100370.59
2022-12-02T02:44:01.906Z,100363.03
2022-12-02T02:44:33.999Z,100360.28
2022-12-02T02:45:06.387Z,100371.16
2022-12-02T02:45:41.671Z,100358.31
2022-12-02T02:46:13.949Z,100364.62
2022-12-02T02:46:46.360Z,100365.59
2022-12-02T02:47:18.395Z,100362.81
2022-12-02T02:47:51.023Z,100366.19
2022-12-02T02:48:24.061Z,100362.59
2022-12-02T02:48:56.371Z,100360.91
2022-12-02T02:49:28.359Z,100372.63
2022-12-02T02:50:00.316Z,100367.84
2022-12-02T02:50:33.654Z,100360.78
2022-12-02T02:51:07.712Z,100363.16
2022-12-02T02:51:40.163Z,100362.78
2022-12-02T02:52:12.394Z,100362.06
2022-12-02T02:52:44.422Z,100366.69
2022-12-02T02:53:18.586Z,100358.09
2022-12-02T02:53:51.053Z,100367.09
2022-12-02T02:54:23.518Z,100350.28
2022-12-02T02:54:55.459Z,100361.03
2022-12-02T02:55:28.442Z,100356.19
2022-12-02T02:56:00.445Z,100361.88
2022-12-02T02:56:33.647Z,100359.59
2022-12-02T02:57:05.577Z,100364.19
2022-12-02T02:57:38.695Z,100359.16
2022-12-02T02:58:13.566Z,100362.56
2022-12-02T02:58:46.288Z,100361.59
2022-12-02T02:59:18.321Z,100361.31
2022-12-02T02:59:55.533Z,100361.16
2022-12-02T03:00:27.806Z,100353.84
2022-12-02T03:01:06.579Z,100357.12
2022-12-02T03:01:38.777Z,100356.16
2022-12-02T03:02:13.432Z,100351.34
2022-12-02T03:02:49.611Z,100356.50
2022-12-02T03:03:24.287Z,100354.00
2022-12-02T03:04:02.808Z,100348.34
2022-12-02T03:04:34.832Z,100350.78
2022-12-02T03:05:07.923Z,100355.09
2022-12-02T03:05:40.982Z,100355.03
2022-12-02T03:06:14.177Z,100351.22
2022-12-02T03:06:47.927Z,100353.38
2022-12-02T03:07:20.409Z,100353.81
2022-12-02T03:07:52.856Z,100352.09
2022-12-02T03:08:26.854Z,100353.56
2022-12-02T03:09:00.816Z,100356.19
2022-12-02T03:09:33.474Z,100347.66
2022-12-02T03:10:06.462Z,100351.56
2022-12-02T03:10:39.318Z,100350.38
2022-12-02T03:11:12.203Z,100350.97
2022-12-02T03:11:46.651Z,100339.72
2022-12-02T03:12:19.140Z,100341.03
2022-12-02T03:12:53.680Z,100344.41
2022-12-02T03:13:26.306Z,100345.87
2022-12-02T03:13:59.381Z,100343.91
2022-12-02T03:14:31.311Z,100348.47
2022-12-02T03:15:04.639Z,100352.00
2022-12-02T03:15:36.909Z,100348.38
2022-12-02T03:16:12.960Z,100356.00
2022-12-02T03:16:46.503Z,100351.22
2022-12-02T03:17:18.542Z,100355.09
2022-12-02T03:17:51.217Z,100355.16
2022-12-02T03:18:23.461Z,100346.94
2022-12-02T03:18:56.846Z,100351.94
2022-12-02T03:19:31.986Z,100350.59
2022-12-02T03:20:05.453Z,100349.84
2022-12-02T03:20:37.351Z,100350.22
2022-12-02T03:21:10.002Z,100346.31
2022-12-02T03:21:42.322Z,100346.25
2022-12-02T03:22:14.267Z,100349.50
2022-12-02T03:22:46.137Z,100347.91
2022-12-02T03:23:18.343Z,100343.41
2022-12-02T03:23:52.454Z,100347.22
2022-12-02T03:24:24.655Z,100347.09
2022-12-02T03:24:56.576Z,100350.31
2022-12-02T03:25:29.386Z,100354.38
2022-12-02T03:26:03.037Z,100348.41
2022-12-02T03:26:36.162Z,100357.12
2022-12-02T03:27:10.202Z,100348.91
2022-12-02T03:27:42.206Z,100353.03
2022-12-02T03:28:14.342Z,100349.41
2022-12-02T03:28:47.607Z,100348.81
2022-12-02T03:29:20.459Z,100350.97
2022-12-02T03:29:52.506Z,100351.47
2022-12-02T03:30:24.737Z,100348.50
2022-12-02T03:30:57.006Z,100354.72
2022-12-02T03:31:29.345Z,100352.97
2022-12-02T03:32:02.505Z,100350.50
2022-12-02T03:32:35.506Z,100351.41
2022-12-02T03:33:07.969Z,100346.63
2022-12-02T03:33:41.465Z,100349.75
2022-12-02T03:34:14.225Z,100346.16
2022-12-02T03:34:46.159Z,100345.84
2022-12-02T03:35:18.130Z,100346.41
2022-12-02T03:35:50.138Z,100345.94
2022-12-02T03:36:22.881Z,100349.56
2022-12-02T03:36:55.181Z,100346.97
2022-12-02T03:37:27.608Z,100340.31
2022-12-02T03:37:59.530Z,100345.56
2022-12-02T03:38:33.046Z,100344.69
2022-12-02T03:39:05.955Z,100345.50
2022-12-02T03:39:38.539Z,100340.34
2022-12-02T03:40:11.155Z,100347.00
2022-12-02T03:40:43.147Z,100343.31
2022-12-02T03:41:15.510Z,100339.22
2022-12-02T03:41:47.672Z,100339.94
2022-12-02T03:42:20.450Z,100339.66
2022-12-02T03:42:52.709Z,100344.34
2022-12-02T03:43:24.817Z,100341.63
2022-12-02T03:43:58.323Z,100343.09
2022-12-02T03:44:30.325Z,100338.59
2022-12-02T03:45:02.921Z,100341.28
2022-12-02T03:45:35.733Z,100342.97
2022-12-02T03:46:08.688Z,100343.56
2022-12-02T03:46:40.998Z,100346.81
2022-12-02T03:47:13.286Z,100341.50
2022-12-02T03:47:45.379Z,100346.22
2022-12-02T03:48:22.198Z,100343.66
2022-12-02T03:48:55.214Z,100339.25
2022-12-02T03:49:27.335Z,100344.69
2022-12-02T03:49:59.680Z,100341.09
2022-12-02T03:50:31.883Z,100341.25
2022-12-02T03:51:03.847Z,100339.91
2022-12-02T03:51:35.954Z,100335.72
2022-12-02T03:52:07.989Z,100343.84
2022-12-02T03:52:40.860Z,100341.31
2022-12-02T03:53:12.922Z,100337.47
2022-12-02T03:53:45.624Z,100344.19
2022-12-02T03:54:17.812Z,100346.16
2022-12-02T03:54:54.869Z,100341.78
2022-12-02T03:55:27.317Z,100337.44
2022-12-02T03:56:05.758Z,100339.28
2022-12-02T03:56:42.528Z,100338.44
2022-12-02T03:57:14.408Z,100342.78
2022-12-02T03:57:46.286Z,100343.59
2022-12-02T03:58:18.107Z,100344.09
2022-12-02T03:58:52.552Z,100339.47
2022-12-02T03:59:28.158Z,100342.72
2022-12-02T04:00:00.350Z,100341.75
2022-12-02T04:00:32.496Z,100341.16
2022-12-02T04:01:05.660Z,100338.03
2022-12-02T04:01:37.586Z,100346.78
2022-12-02T04:02:09.656Z,100350.84
2022-12-02T04:02:41.603Z,100348.03
2022-12-02T04:03:13.559Z,100343.78
2022-12-02T04:03:45.529Z,100343.56
2022-12-02T04:04:17.436Z,100338.87
2022-12-02T04:04:49.660Z,100350.22
2022-12-02T04:05:21.758Z,100343.28
2022-12-02T04:05:53.670Z,100342.97
2022-12-02T04:06:26.105Z,100342.91
2022-12-02T04:06:58.855Z,100342.59
2022-12-02T04:07:30.750Z,100341.25
2022-12-02T04:08:02.725Z,100346.09
2022-12-02T04:08:34.787Z,100346.84
2022-12-02T04:09:06.632Z,100344.41
2022-12-02T04:09:38.473Z,100343.47
2022-12-02T04:10:10.844Z,100347.94
2022-12-02T04:10:42.680Z,100344.09
2022-12-02T04:11:14.557Z,100344.34
2022-12-02T04:11:46.829Z,100342.78
2022-12-02T04:12:18.702Z,100340.50
2022-12-02T04:12:50.576Z,100339.38
2022-12-02T04:13:22.413Z,100343.06
2022-12-02T04:13:54.280Z,100343.09
2022-12-02T04:14:26.215Z,100342.78
2022-12-02T04:14:58.077Z,100346.25
2022-12-02T04:15:30.190Z,100343.75
2022-12-02T04:16:02.206Z,100342.22
2022-12-02T04:16:34.094Z,100338.50
2022-12-02T04:17:08.306Z,100343.09
2022-12-02T04:17:40.438Z,100340.88
2022-12-02T04:18:12.273Z,100338.81
2022-12-02T04:18:44.229Z,100348.56
2022-12-02T04:19:16.088Z,100347.47
2022-12-02T04:19:49.056Z,100342.06
2022-12-02T04:20:20.911Z,100332.41
2022-12-02T04:20:52.791Z,100341.63
2022-12-02T04:21:27.490Z,100340.34
2022-12-02T04:21:59.372Z,100344.22
2022-12-02T04:22:31.873Z,100344.53
2022-12-02T04:23:03.716Z,100352.16
2022-12-02T04:23:35.608Z,100350.00
2022-12-02T04:24:07.868Z,100349.44
2022-12-02T04:24:39.697Z,100348.13
2022-12-02T04:25:11.554Z,100344.19
2022-12-02T04:25:43.868Z,100352.66
2022-12-02T04:26:15.965Z,100347.88
2022-12-02T04:26:47.787Z,100349.00
2022-12-02T04:27:19.633Z,100346.13
2022-12-02T04:27:51.849Z,100355.47
2022-12-02T04:28:23.703Z,100349.00
2022-12-02T04:28:55.539Z,100351.84
2022-12-02T04:29:27.445Z,100349.25
2022-12-02T04:29:59.269Z,100356.63
2022-12-02T04:30:31.172Z,100347.66
2022-12-02T04:31:03.112Z,100349.81
2022-12-02T04:31:35.045Z,100349.06
2022-12-02T04:32:06.938Z,100343.47
2022-12-02T04:32:38.812Z,100353.19
2022-12-02T04:33:11.035Z,100347.78
2022-12-02T04:33:42.917Z,100351.03
2022-12-02T04:34:14.874Z,100350.75
2022-12-02T04:34:46.783Z,100345.44
2022-12-02T04:35:18.717Z,100349.13
2022-12-02T04:35:50.765Z,100345.50
2022-12-02T04:36:22.591Z,100351.47
2022-12-02T04:36:54.489Z,100348.16
2022-12-02T04:37:26.311Z,100348.47
2022-12-02T04:37:58.387Z,100352.81
2022-12-02T04:38:30.592Z,100352.53
2022-12-02T04:39:02.570Z,100347.16
2022-12-02T04:39:34.459Z,100348.03
2022-12-02T04:40:07.175Z,100350.22
2022-12-02T04:40:38.964Z,100348.91
2022-12-02T04:41:10.746Z,100347.94
2022-12-02T04:41:42.575Z,100348.91
2022-12-02T04:42:14.402Z,100354.78
2022-12-02T04:42:46.302Z,100349.09
2022-12-02T04:43:18.243Z,100344.31
2022-12-02T04:43:50.360Z,100342.56
2022-12-02T04:44:22.231Z,100353.31
2022-12-02T04:44:54.105Z,100345.87
2022-12-02T04:45:25.978Z,100342.91
2022-12-02T04:45:57.831Z,100342.09
2022-12-02T04:46:29.841Z,100347.50
2022-12-02T04:47:01.998Z,100347.53
2022-12-02T04:47:33.834Z,100349.19
2022-12-02T04:48:06.017Z,100346.81
2022-12-02T04:48:37.848Z,100355.03
2022-12-02T04:49:09.963Z,100349.84
2022-12-02T04:49:41.791Z,100350.97
2022-12-02T04:50:13.678Z,100353.41
2022-12-02T04:50:45.499Z,100353.69
2022-12-02T04:51:17.342Z,100345.00
2022-12-02T04:51:49.162Z,100349.25
2022-12-02T04:52:21.037Z,100349.44
2022-12-02T04:52:53.468Z,100345.06
2022-12-02T04:53:25.380Z,100349.94
2022-12-02T04:53:57.238Z,100337.62
2022-12-02T04:54:29.400Z,100344.19
2022-12-02T04:55:01.239Z,100352.81
2022-12-02T04:55:33.108Z,100355.03
2022-12-02T04:56:05.261Z,100349.41
2022-12-02T04:56:37.247Z,100353.75
2022-12-02T04:57:09.071Z,100349.34
2022-12-02T04:57:40.987Z,100352.75
2022-12-02T04:58:13.492Z,100351.34
2022-12-02T04:58:45.336Z,100349.25
2022-12-02T04:59:17.747Z,100347.94
2022-12-02T04:59:50.040Z,100346.69
2022-12-02T05:00:22.071Z,100352.66
2022-12-02T05:00:54.112Z,100350.16
2022-12-02T05:01:25.964Z,100344.03
2022-12-02T05:01:58.292Z,100347.72
2022-12-02T05:02:30.276Z,100343.28
2022-12-02T05:03:02.205Z,100342.75
2022-12-02T05:03:34.108Z,100352.28
2022-12-02T05:04:05.998Z,100349.09
2022-12-02T05:04:40.359Z,100347.56
2022-12-02T05:05:12.839Z,100342.59
2022-12-02T05:05:44.691Z,100350.06
2022-12-02T05:06:16.710Z,100345.94
2022-12-02T05:06:48.586Z,100344.09
2022-12-02T05:07:20.521Z,100349.78
2022-12-02T05:07:52.436Z,100343.16
2022-12-02T05:08:24.337Z,100342.72
2022-12-02T05:08:56.181Z,100345.94
2022-12-02T05:09:28.052Z,100347.88
2022-12-02T05:09:59.954Z,100345.84
2022-12-02T05:10:32.112Z,100342.03
2022-12-02T05:11:04.058Z,100357.06
2022-12-02T05:11:36.651Z,100350.84
2022-12-02T05:12:08.712Z,100346.53
2022-12-02T05:12:40.556Z,100346.06
2022-12-02T05:13:12.368Z,100347.50
2022-12-02T05:13:44.215Z,100345.87
2022-12-02T05:14:16.053Z,100352.06
2022-12-02T05:14:47.933Z,100349.03
2022-12-02T05:15:22.629Z,100343.94
2022-12-02T05:15:54.893Z,100348.97
2022-12-02T05:16:26.842Z,100348.06
2022-12-02T05:16:58.725Z,100352.97
2022-12-02T05:17:31.040Z,100344.00
2022-12-02T05:18:03.534Z,100354.31
2022-12-02T05:18:35.438Z,100351.81
2022-12-02T05:19:07.301Z,100350.72
2022-12-02T05:19:39.140Z,100347.19
2022-12-02T05:20:11.851Z,100350.25
2022-12-02T05:20:43.683Z,100350.25
2022-12-02T05:21:15.863Z,100352.50
2022-12-02T05:21:47.755Z,100356.34
2022-12-02T05:22:19.587Z,100359.78
2022-12-02T05:22:51.773Z,100361.47
2022-12-02T05:23:23.619Z,100356.13
2022-12-02T05:23:55.457Z,100356.84
2022-12-02T05:24:27.468Z,100355.03
2022-12-02T05:24:59.403Z,100356.38
2022-12-02T05:25:31.234Z,100355.78
2022-12-02T05:26:03.214Z,100347.72
2022-12-02T05:26:35.515Z,100354.44
2022-12-02T05:27:07.437Z,100349.25
2022-12-02T05:27:39.356Z,100349.72
2022-12-02T05:28:11.187Z,100353.94
2022-12-02T05:28:42.999Z,100351.91
2022-12-02T05:29:14.839Z,100348.22
2022-12-02T05:29:46.912Z,100349.09
2022-12-02T05:30:18.812Z,100350.72
2022-12-02T05:30:50.624Z,100346.53
2022-12-02T05:31:22.504Z,100353.03
2022-12-02T05:31:54.831Z,100348.69
2022-12-02T05:32:26.871Z,100348.91
2022-12-02T05:32:58.690Z,100347.34
2022-12-02T05:33:30.630Z,100357.22
2022-12-02T05:34:02.479Z,100356.63
2022-12-02T05:34:34.374Z,100351.84
2022-12-02T05:35:06.452Z,100351.72
2022-12-02T05:35:38.322Z,100356.56
2022-12-02T05:36:13.300Z,100354.53
2022-12-02T05:36:45.174Z,100350.41
2022-12-02T05:37:17.536Z,100349.50
2022-12-02T05:37:49.499Z,100353.50
2022-12-02T05:38:21.390Z,100356.31
2022-12-02T05:38:53.353Z,100355.72
2022-12-02T05:39:25.193Z,100364.28
2022-12-02T05:39:58.756Z,100349.69
2022-12-02T05:40:30.740Z,100359.44
2022-12-02T05:41:02.582Z,100359.13
2022-12-02T05:41:34.558Z,100358.56
2022-12-02T05:42:08.824Z,100354.94
2022-12-02T05:42:41.772Z,100355.69
2022-12-02T05:43:19.517Z,100361.00
2022-12-02T05:43:51.552Z,100361.22
2022-12-02T05:44:25.904Z,100361.53
2022-12-02T05:45:06.084Z,100362.37
2022-12-02T05:45:38.250Z,100352.81
2022-12-02T05:46:16.015Z,100352.53
2022-12-02T05:46:48.768Z,100355.81
2022-12-02T05:47:22.003Z,100349.34
2022-12-02T05:47:54.967Z,100356.63
2022-12-02T05:48:35.468Z,100356.19
2022-12-02T05:49:17.967Z,100360.00
2022-12-02T05:49:49.807Z,100349.22
2022-12-02T05:50:23.467Z,100360.13
2022-12-02T05:50:56.118Z,100359.31
2022-12-02T05:51:27.978Z,100355.47
2022-12-02T05:52:02.065Z,100353.06
2022-12-02T05:52:34.039Z,100356.31
2022-12-02T05:53:07.371Z,100356.00
2022-12-02T05:53:43.294Z,100362.13
2022-12-02T05:54:19.588Z,100358.66
2022-12-02T05:54:53.797Z,100359.69
2022-12-02T05:55:25.836Z,100359.31
2022-12-02T05:56:00.288Z,100361.91
2022-12-02T05:56:32.376Z,100358.94
2022-12-02T05:57:07.040Z,100361.53
2022-12-02T05:57:39.002Z,100363.88
2022-12-02T05:58:13.884Z,100356.00
2022-12-02T05:58:45.774Z,100360.44
2022-12-02T05:59:19.987Z,100364.00
2022-12-02T05:59:58.405Z,100358.56
2022-12-02T06:00:31.058Z,100361.38
2022-12-02T06:01:26.299Z,100364.47
2022-12-02T06:01:59.360Z,100365.59
2022-12-02T06:02:40.696Z,100361.78
2022-12-02T06:03:19.604Z,100361.38
2022-12-02T06:03:51.559Z,100367.19
2022-12-02T06:04:31.821Z,100365.78
2022-12-02T06:05:17.992Z,100354.31
2022-12-02T06:05:51.032Z,100360.38
2022-12-02T06:06:28.221Z,100354.84
2022-12-02T06:07:02.489Z,100357.16
2022-12-02T06:07:34.443Z,100363.38
2022-12-02T06:08:22.166Z,100360.50
2022-12-02T06:08:55.562Z,100364.78
2022-12-02T06:09:33.402Z,100358.44
2022-12-02T06:10:31.894Z,100369.00
2022-12-02T06:11:21.785Z,100362.59
2022-12-02T06:11:54.600Z,100365.19
2022-12-02T06:12:26.395Z,100365.44
2022-12-02T06:13:02.276Z,100365.44
2022-12-02T06:13:38.279Z,100365.09
2022-12-02T06:14:19.610Z,100362.44
2022-12-02T06:14:54.368Z,100362.97
2022-12-02T06:15:32.787Z,100368.41
2022-12-02T06:16:18.409Z,100373.84
2022-12-02T06:17:00.862Z,100379.69
2022-12-02T06:17:34.252Z,100366.84
2022-12-02T06:18:17.723Z,100374.56
2022-12-02T06:18:49.644Z,100379.59
2022-12-02T06:19:35.813Z,100372.09
2022-12-02T06:20:26.980Z,100376.06
2022-12-02T06:21:02.944Z,100372.53
2022-12-02T06:21:34.910Z,100376.97
2022-12-02T06:22:32.392Z,100380.06
2022-12-02T06:23:04.612Z,100376.34
2022-12-02T06:23:41.815Z,100370.66
2022-12-02T06:24:13.772Z,100372.28
2022-12-02T06:24:46.205Z,100374.06
2022-12-02T06:25:29.740Z,100380.66
2022-12-02T06:26:01.744Z,100378.97
2022-12-02T06:26:33.652Z,100377.09
2022-12-02T06:27:05.490Z,100375.47
2022-12-02T06:27:37.353Z,100379.19
2022-12-02T06:28:50.627Z,100380.25
2022-12-02T06:29:22.689Z,100374.44
2022-12-02T06:30:01.922Z,100379.97
2022-12-02T06:30:34.778Z,100383.47
2022-12-02T06:31:23.890Z,100378.19
2022-12-02T06:31:57.150Z,100374.94
2022-12-02T06:32:37.846Z,100377.78
2022-12-02T06:33:31.759Z,100373.72
2022-12-02T06:34:20.698Z,100379.59
2022-12-02T06:34:53.364Z,100380.38
2022-12-02T06:35:33.259Z,100374.19
2022-12-02T06:36:12.007Z,100381.00
2022-12-02T06:36:43.887Z,100381.22
2022-12-02T06:37:38.893Z,100380.69
2022-12-02T06:38:43.805Z,100379.41
2022-12-02T06:39:21.983Z,100379.81
2022-12-02T06:40:52.356Z,100374.97
2022-12-02T06:41:27.085Z,100385.66
2022-12-02T06:42:08.647Z,100379.06
2022-12-02T06:42:40.567Z,100381.44
2022-12-02T06:43:22.956Z,100377.53
2022-12-02T06:44:19.234Z,100384.53
2022-12-02T06:45:08.029Z,100384.50
2022-12-02T06:45:39.921Z,100383.25
2022-12-02T06:46:20.401Z,100387.81
2022-12-02T06:46:52.335Z,100389.81
2022-12-02T06:47:32.987Z,100390.78
2022-12-02T06:48:13.850Z,100391.16
2022-12-02T06:48:46.020Z,100387.97
2022-12-02T06:49:23.549Z,100389.75
2022-12-02T06:49:55.393Z,100392.22
2022-12-02T06:50:40.561Z,100390.81
2022-12-02T06:51:19.897Z,100390.38
2022-12-02T06:52:15.861Z,100379.19
2022-12-02T06:52:48.053Z,100389.94
2022-12-02T06:53:33.029Z,100390.31
2022-12-02T06:54:13.943Z,100387.81
2022-12-02T06:54:46.496Z,100384.56
2022-12-02T06:55:30.430Z,100388.66
2022-12-02T06:56:20.958Z,100384.31
2022-12-02T06:56:57.085Z,100384.12
2022-12-02T06:57:31.609Z,100382.66
2022-12-02T06:58:21.652Z,100382.00
2022-12-02T06:58:53.439Z,100391.62
2022-12-02T06:59:26.081Z,100384.00
2022-12-02T06:59:58.034Z,100387.00
2022-12-02T07:00:32.346Z,100393.44
2022-12-02T07:01:15.741Z,100394.09
2022-12-02T07:01:47.974Z,100392.44
2022-12-02T07:02:31.763Z,100389.94
2022-12-02T07:03:05.472Z,100388.69
2022-12-02T07:03:42.891Z,100397.59
2022-12-02T07:04:30.148Z,100392.22
2022-12-02T07:05:02.342Z,100396.50
2022-12-02T07:05:34.206Z,100391.56
2022-12-02T07:06:25.225Z,100394.88
2022-12-02T07:07:02.821Z,100402.63
2022-12-02T07:07:36.413Z,100401.38
2022-12-02T07:08:08.414Z,100397.84
2022-12-02T07:08:40.328Z,100399.59
2022-12-02T07:09:21.176Z,100398.88
2022-12-02T07:09:57.399Z,100400.47
2022-12-02T07:10:30.756Z,100401.38
2022-12-02T07:11:02.644Z,100396.53
2022-12-02T07:11:51.665Z,100396.59
2022-12-02T07:12:28.880Z,100407.16
2022-12-02T07:13:08.335Z,100397.19
2022-12-02T07:13:40.194Z,100402.44
2022-12-02T07:14:37.779Z,100399.03
2022-12-02T07:15:09.586Z,100403.88
2022-12-02T07:15:42.516Z,100403.28
2022-12-02T07:16:33.456Z,100403.28
2022-12-02T07:17:14.083Z,100397.00
2022-12-02T07:17:45.926Z,100396.28
2022-12-02T07:18:21.603Z,100405.75
2022-12-02T07:18:53.500Z,100405.44
2022-12-02T07:19:46.984Z,100403.53
2022-12-02T07:20:27.943Z,100403.53
2022-12-02T07:21:00.085Z,100406.13
2022-12-02T07:21:31.946Z,100407.34
2022-12-02T07:22:14.371Z,100415.38
2022-12-02T07:22:49.035Z,100411.09
2022-12-02T07:23:26.471Z,100403.72
2022-12-02T07:23:58.412Z,100404.03
2022-12-02T07:24:30.259Z,100411.09
2022-12-02T07:25:15.898Z,100400.84
2022-12-02T07:25:51.396Z,100405.25
2022-12-02T07:26:24.400Z,100401.97
2022-12-02T07:26:58.770Z,100403.28
2022-12-02T07:27:37.738Z,100401.56
2022-12-02T07:28:19.046Z,100404.44
2022-12-02T07:28:59.201Z,100401.97
2022-12-02T07:29:43.933Z,100399.59
2022-12-02T07:30:41.433Z,100410.81
2022-12-02T07:31:22.687Z,100406.72
2022-12-02T07:31:54.905Z,100410.06
2022-12-02T07:32:27.184Z,100410.69
2022-12-02T07:33:00.154Z,100407.63
2022-12-02T07:33:32.031Z,100411.91
2022-12-02T07:34:03.903Z,100405.84
2022-12-02T07:34:35.744Z,100404.34
2022-12-02T07:35:07.889Z,100406.94
2022-12-02T07:35:39.841Z,100403.59
2022-12-02T07:36:11.732Z,100408.84
2022-12-02T07:36:43.814Z,100405.50
2022-12-02T07:37:16.150Z,100404.94
2022-12-02T07:37:48.081Z,100408.25
2022-12-02T07:38:36.425Z,100411.34
2022-12-02T07:39:12.868Z,100409.13
2022-12-02T07:39:45.666Z,100403.72
2022-12-02T07:40:18.948Z,100400.16
2022-12-02T07:40:50.775Z,100402.41
2022-12-02T07:41:22.621Z,100400.84
2022-12-02T07:41:54.410Z,100402.09
2022-12-02T07:42:26.567Z,100405.81
2022-12-02T07:42:58.515Z,100404.22
2022-12-02T07:43:31.277Z,100407.66
2022-12-02T07:44:03.411Z,100401.06
2022-12-02T07:44:35.409Z,100411.62
2022-12-02T07:45:07.857Z,100411.47
2022-12-02T07:45:39.774Z,100417.97
2022-12-02T07:46:11.767Z,100407.88
2022-12-02T07:46:43.616Z,100409.25
2022-12-02T07:47:15.605Z,100416.28
2022-12-02T07:47:47.983Z,100412.72
2022-12-02T07:48:19.823Z,100410.09
2022-12-02T07:48:57.012Z,100409.41
2022-12-02T07:49:29.348Z,100414.66
2022-12-02T07:50:01.188Z,100412.19
2022-12-02T07:50:33.153Z,100418.12
2022-12-02T07:51:06.200Z,100415.97
2022-12-02T07:51:38.068Z,100414.28
2022-12-02T07:52:10.004Z,100420.34
2022-12-02T07:52:41.824Z,100416.81
2022-12-02T07:53:14.023Z,100430.59
2022-12-02T07:53:45.859Z,100413.87
2022-12-02T07:54:17.770Z,100419.53
2022-12-02T07:54:50.067Z,100419.34
2022-12-02T07:55:26.326Z,100414.06
2022-12-02T07:55:58.653Z,100422.12
2022-12-02T07:56:30.473Z,100421.91
2022-12-02T07:57:02.375Z,100419.69
2022-12-02T07:57:34.688Z,100404.69
2022-12-02T07:58:07.332Z,100417.13
2022-12-02T07:59:10.214Z,100414.59
2022-12-02T07:59:31.428Z,100410.66